createdAt,value
2023-01-17T00:01:28.544Z,97918.25
2023-01-17T00:04:14.213Z,97923.75
2023-01-17T00:06:59.686Z,97935.94
2023-01-17T00:09:45.132Z,97937.91
2023-01-17T00:12:10.692Z,97949.72
2023-01-17T00:14:36.249Z,97947.31
2023-01-17T00:17:01.974Z,97950.88
2023-01-17T00:19:47.427Z,97949.72
2023-01-17T00:22:48.602Z,97939.84
2023-01-17T00:25:35.837Z,97948.91
2023-01-17T00:30:38.200Z,97949.28
2023-01-17T00:35:40.474Z,97952.84
2023-01-17T00:43:38.114Z,97968.56
2023-01-17T00:46:23.664Z,97976.03
2023-01-17T00:49:09.289Z,97972.44
2023-01-17T00:51:55.015Z,97980.72
2023-01-17T00:54:40.495Z,97986.22
2023-01-17T00:57:26.384Z,97996.13
2023-01-17T01:00:11.865Z,98000.84
2023-01-17T01:02:57.355Z,98000.00
2023-01-17T01:05:43.066Z,98013.00
2023-01-17T01:08:44.425Z,98014.63
2023-01-17T01:11:31.838Z,98018.50
2023-01-17T01:14:18.072Z,98024.03
2023-01-17T01:17:03.518Z,98032.28
2023-01-17T01:19:48.973Z,98035.03
2023-01-17T01:22:34.446Z,98048.03
2023-01-17T01:25:19.918Z,98053.53
2023-01-17T01:28:05.386Z,98055.50
2023-01-17T01:30:50.920Z,98064.56
2023-01-17T01:33:22.153Z,98070.88
2023-01-17T01:35:48.635Z,98079.50
2023-01-17T01:38:14.476Z,98085.81
2023-01-17T01:40:41.462Z,98097.63
2023-01-17T01:43:08.081Z,98103.16
2023-01-17T01:45:33.724Z,98116.13
2023-01-17T01:48:01.988Z,98117.28
2023-01-17T01:50:27.778Z,98118.09
2023-01-17T01:52:54.171Z,98125.53
2023-01-17T01:55:23.702Z,98126.34
2023-01-17T01:57:50.088Z,98126.34
2023-01-17T02:00:17.143Z,98122.78
2023-01-17T02:02:42.732Z,98131.06
2023-01-17T02:05:08.311Z,98134.97
2023-01-17T02:07:35.945Z,98139.31
2023-01-17T02:10:04.461Z,98137.38
2023-01-17T02:12:30.010Z,98144.03
2023-01-17T02:14:55.633Z,98150.34
2023-01-17T02:17:41.062Z,98157.03
2023-01-17T02:23:11.146Z,98159.78
2023-01-17T02:25:43.566Z,98171.59
2023-01-17T02:28:15.494Z,98165.28
2023-01-17T02:30:41.930Z,98171.59
2023-01-17T02:33:14.565Z,98176.31
2023-01-17T02:35:42.774Z,98173.56
2023-01-17T02:38:30.390Z,98176.31
2023-01-17T02:40:58.863Z,98175.50
2023-01-17T02:43:24.970Z,98184.56
2023-01-17T02:45:50.552Z,98199.47
2023-01-17T02:48:16.387Z,98195.59
2023-01-17T02:51:01.829Z,98198.34
2023-01-17T02:53:32.717Z,98203.06
2023-01-17T02:56:08.535Z,98202.25
2023-01-17T02:58:54.038Z,98198.69
2023-01-17T03:01:25.901Z,98197.88
2023-01-17T03:03:56.752Z,98205.00
2023-01-17T03:06:42.202Z,98209.72
2023-01-17T03:09:07.774Z,98218.78
2023-01-17T03:11:33.330Z,98225.44
2023-01-17T03:13:58.882Z,98230.94
2023-01-17T03:16:25.309Z,98226.25
2023-01-17T03:18:52.936Z,98241.19
2023-01-17T03:21:18.710Z,98241.97
2023-01-17T03:23:44.259Z,98253.00
2023-01-17T03:26:09.841Z,98255.75
2023-01-17T03:28:35.406Z,98254.94
2023-01-17T03:31:00.988Z,98249.44
2023-01-17T03:33:26.550Z,98250.59
2023-01-17T03:35:53.734Z,98257.72
2023-01-17T03:38:19.772Z,98249.44
2023-01-17T03:40:45.335Z,98250.59
2023-01-17T03:43:11.102Z,98254.16
2023-01-17T03:45:36.730Z,98245.09
2023-01-17T03:48:02.293Z,98250.59
2023-01-17T03:50:27.922Z,98257.72
2023-01-17T03:52:53.479Z,98251.41
2023-01-17T03:55:19.049Z,98259.66
2023-01-17T03:57:44.599Z,98265.97
2023-01-17T04:00:10.462Z,98264.38
2023-01-17T04:02:36.056Z,98262.41
2023-01-17T04:05:01.634Z,98270.69
2023-01-17T04:07:27.179Z,98275.41
2023-01-17T04:09:53.356Z,98272.63
2023-01-17T04:12:19.040Z,98276.19
2023-01-17T04:14:44.606Z,98280.09
2023-01-17T04:17:11.138Z,98277.34
2023-01-17T04:19:36.702Z,98273.78
2023-01-17T04:22:02.293Z,98279.31
2023-01-17T04:24:27.845Z,98274.91
2023-01-17T04:26:53.389Z,98286.41
2023-01-17T04:29:18.947Z,98279.31
2023-01-17T04:31:45.582Z,98272.97
2023-01-17T04:34:11.140Z,98278.47
2023-01-17T04:36:37.175Z,98293.88
2023-01-17T04:39:02.730Z,98291.13
2023-01-17T04:41:28.289Z,98281.22
2023-01-17T04:43:53.914Z,98278.47
2023-01-17T04:46:19.517Z,98279.63
2023-01-17T04:48:45.068Z,98281.22
2023-01-17T04:51:10.621Z,98282.06
2023-01-17T04:53:36.179Z,98272.97
2023-01-17T04:56:02.166Z,98274.13
2023-01-17T04:58:27.791Z,98280.44
2023-01-17T05:00:54.053Z,98281.22
2023-01-17T05:03:20.198Z,98285.94
2023-01-17T05:05:46.131Z,98277.66
2023-01-17T05:08:11.682Z,98285.13
2023-01-17T05:10:37.244Z,98284.34
2023-01-17T05:13:02.784Z,98287.91
2023-01-17T05:15:28.396Z,98293.41
2023-01-17T05:17:54.102Z,98291.44
2023-01-17T05:20:20.272Z,98303.63
2023-01-17T05:22:54.513Z,98313.50
2023-01-17T05:25:21.054Z,98309.13
2023-01-17T05:27:46.599Z,98320.97
2023-01-17T05:30:12.237Z,98311.91
2023-01-17T05:32:37.783Z,98323.72
2023-01-17T05:35:03.451Z,98325.66
2023-01-17T05:37:29.009Z,98331.19
2023-01-17T05:39:54.573Z,98325.66
2023-01-17T05:42:20.126Z,98324.88
2023-01-17T05:44:45.840Z,98324.88
2023-01-17T05:47:11.385Z,98331.97
2023-01-17T05:49:38.114Z,98328.44
2023-01-17T05:52:03.655Z,98322.13
2023-01-17T05:54:29.211Z,98326.81
2023-01-17T05:56:54.759Z,98329.59
2023-01-17T05:59:32.259Z,98330.38
2023-01-17T06:02:01.884Z,98331.19
2023-01-17T06:04:27.512Z,98337.84
2023-01-17T06:06:53.088Z,98335.91
2023-01-17T06:09:18.651Z,98330.72
2023-01-17T06:11:44.219Z,98335.09
2023-01-17T06:14:09.766Z,98343.34
2023-01-17T06:16:35.416Z,98348.06
2023-01-17T06:19:00.965Z,98350.81
2023-01-17T06:21:28.183Z,98348.88
2023-01-17T06:23:54.006Z,98354.38
2023-01-17T06:26:19.616Z,98357.13
2023-01-17T06:28:45.162Z,98353.56
2023-01-17T06:31:10.816Z,98352.78
2023-01-17T06:33:36.419Z,98358.28
2023-01-17T06:36:02.003Z,98367.34
2023-01-17T06:38:29.055Z,98366.56
2023-01-17T06:40:54.709Z,98370.13
2023-01-17T06:43:20.268Z,98370.13
2023-01-17T06:45:45.830Z,98371.25
2023-01-17T06:48:11.547Z,98368.50
2023-01-17T06:50:37.288Z,98365.75
2023-01-17T06:53:03.603Z,98364.91
2023-01-17T06:55:29.609Z,98367.69
2023-01-17T06:57:55.564Z,98373.19
2023-01-17T07:00:21.273Z,98378.69
2023-01-17T07:02:48.591Z,98382.28
2023-01-17T07:05:15.527Z,98380.66
2023-01-17T07:07:41.076Z,98390.66
2023-01-17T07:10:06.688Z,98379.63
2023-01-17T07:12:32.258Z,98383.19
2023-01-17T07:14:57.807Z,98388.25
2023-01-17T07:17:23.365Z,98388.25
2023-01-17T07:19:48.935Z,98380.00
2023-01-17T07:22:14.488Z,98378.03
2023-01-17T07:24:40.107Z,98394.56
2023-01-17T07:27:06.233Z,98384.34
2023-01-17T07:29:31.783Z,98391.81
2023-01-17T07:31:57.332Z,98384.34
2023-01-17T07:34:22.887Z,98382.41
2023-01-17T07:36:48.947Z,98384.34
2023-01-17T07:39:14.824Z,98387.91
2023-01-17T07:41:40.497Z,98388.72
2023-01-17T07:44:06.923Z,98383.03
2023-01-17T07:46:32.548Z,98383.81
2023-01-17T07:48:58.160Z,98388.03
2023-01-17T07:51:23.738Z,98391.53
2023-01-17T07:53:51.876Z,98388.44
2023-01-17T07:56:17.431Z,98383.88
2023-01-17T07:58:42.977Z,98383.41
2023-01-17T08:01:10.385Z,98387.09
2023-01-17T08:03:39.080Z,98390.81
2023-01-17T08:06:05.302Z,98391.44
2023-01-17T08:08:30.867Z,98383.34
2023-01-17T08:10:56.442Z,98386.75
2023-01-17T08:13:22.133Z,98384.31
2023-01-17T08:15:48.354Z,98381.44
2023-01-17T08:18:13.934Z,98395.22
2023-01-17T08:20:39.495Z,98388.91
2023-01-17T08:23:05.055Z,98388.91
2023-01-17T08:25:32.273Z,98388.09
2023-01-17T08:27:57.956Z,98388.44
2023-01-17T08:30:23.895Z,98395.56
2023-01-17T08:32:49.491Z,98392.00
2023-01-17T08:35:15.053Z,98395.56
2023-01-17T08:37:40.999Z,98396.38
2023-01-17T08:40:07.096Z,98395.56
2023-01-17T08:42:38.520Z,98397.53
2023-01-17T08:45:04.569Z,98396.03
2023-01-17T08:47:30.620Z,98403.31
2023-01-17T08:49:58.731Z,98400.22
2023-01-17T08:52:24.338Z,98403.00
2023-01-17T08:54:50.700Z,98399.88
2023-01-17T08:57:16.259Z,98402.31
2023-01-17T08:59:41.814Z,98407.34
2023-01-17T09:02:14.081Z,98400.69
2023-01-17T09:04:43.450Z,98390.81
2023-01-17T09:07:09.028Z,98398.28
2023-01-17T09:09:34.575Z,98399.06
2023-01-17T09:12:00.165Z,98401.84
2023-01-17T09:14:25.739Z,98396.66
2023-01-17T09:16:51.370Z,98403.78
2023-01-17T09:19:16.995Z,98405.75
2023-01-17T09:21:42.558Z,98410.09
2023-01-17T09:24:08.121Z,98403.78
2023-01-17T09:26:34.584Z,98408.63
2023-01-17T09:29:00.179Z,98405.19
2023-01-17T09:31:26.940Z,98409.56
2023-01-17T09:33:52.993Z,98411.19
2023-01-17T09:36:18.770Z,98415.09
2023-01-17T09:38:44.356Z,98415.41
2023-01-17T09:41:17.520Z,98417.09
2023-01-17T09:43:45.403Z,98424.06
2023-01-17T09:46:13.950Z,98419.09
2023-01-17T09:48:39.543Z,98418.16
2023-01-17T09:51:07.507Z,98422.13
2023-01-17T09:53:34.040Z,98416.78
2023-01-17T09:56:09.081Z,98420.78
2023-01-17T09:58:42.934Z,98425.97
2023-01-17T10:01:12.115Z,98422.66
2023-01-17T10:03:41.869Z,98430.47
2023-01-17T10:06:27.424Z,98430.00
2023-01-17T10:09:07.156Z,98433.56
2023-01-17T10:11:34.065Z,98439.91
2023-01-17T10:14:05.420Z,98439.06
2023-01-17T10:16:49.265Z,98442.66
2023-01-17T10:19:18.672Z,98439.06
2023-01-17T10:22:05.004Z,98448.19
2023-01-17T10:24:51.097Z,98443.78
2023-01-17T10:27:18.661Z,98444.59
2023-01-17T10:29:44.204Z,98437.16
2023-01-17T10:32:09.835Z,98439.91
2023-01-17T10:34:36.694Z,98433.56
2023-01-17T10:37:10.724Z,98439.91
2023-01-17T10:39:36.283Z,98437.19
2023-01-17T10:42:04.791Z,98434.63
2023-01-17T10:44:32.731Z,98427.00
2023-01-17T10:47:18.171Z,98429.53
2023-01-17T10:49:45.480Z,98438.63
2023-01-17T10:52:16.959Z,98436.66
2023-01-17T10:54:46.436Z,98440.72
2023-01-17T10:57:12.908Z,98434.38
2023-01-17T10:59:38.471Z,98435.19
2023-01-17T11:02:09.474Z,98432.44
2023-01-17T11:04:36.231Z,98423.81
2023-01-17T11:07:10.475Z,98419.91
2023-01-17T11:09:37.090Z,98424.63
2023-01-17T11:12:02.666Z,98415.19
2023-01-17T11:14:29.977Z,98408.06
2023-01-17T11:17:03.510Z,98413.59
2023-01-17T11:19:30.599Z,98416.34
2023-01-17T11:21:57.804Z,98408.06
2023-01-17T11:24:29.499Z,98411.63
2023-01-17T11:26:55.051Z,98407.00
2023-01-17T11:29:30.147Z,98402.91
2023-01-17T11:31:55.901Z,98392.41
2023-01-17T11:34:22.982Z,98395.09
2023-01-17T11:36:49.367Z,98407.13
2023-01-17T11:39:20.869Z,98400.94
2023-01-17T11:41:47.450Z,98401.41
2023-01-17T11:44:21.172Z,98394.06
2023-01-17T11:46:46.743Z,98378.22
2023-01-17T11:49:28.319Z,98396.03
2023-01-17T11:51:55.376Z,98390.19
2023-01-17T11:54:28.677Z,98387.44
2023-01-17T11:56:57.737Z,98385.47
2023-01-17T11:59:24.301Z,98381.91
2023-01-17T12:01:54.965Z,98380.75
2023-01-17T12:04:40.433Z,98379.97
2023-01-17T12:10:07.268Z,98372.00
2023-01-17T12:12:57.395Z,98371.56
2023-01-17T12:15:42.859Z,98373.97
2023-01-17T12:18:29.351Z,98375.56
2023-01-17T12:21:15.688Z,98369.25
2023-01-17T12:23:48.343Z,98371.22
2023-01-17T12:26:26.757Z,98369.25
2023-01-17T12:29:12.737Z,98375.69
2023-01-17T12:31:40.678Z,98365.00
2023-01-17T12:34:18.089Z,98364.22
2023-01-17T12:36:49.466Z,98357.91
2023-01-17T12:39:15.469Z,98356.75
2023-01-17T12:41:57.456Z,98355.13
2023-01-17T12:44:28.609Z,98353.19
2023-01-17T12:46:58.625Z,98355.13
2023-01-17T12:49:31.662Z,98349.28
2023-01-17T12:51:58.570Z,98356.41
2023-01-17T12:54:28.570Z,98349.75
2023-01-17T12:56:58.519Z,98348.13
2023-01-17T12:59:27.148Z,98345.72
2023-01-17T13:01:57.650Z,98348.13
2023-01-17T13:04:24.889Z,98352.84
2023-01-17T13:06:55.941Z,98352.03
2023-01-17T13:09:22.006Z,98352.03
2023-01-17T13:11:49.823Z,98352.84
2023-01-17T13:14:15.699Z,98351.69
2023-01-17T13:16:43.760Z,98346.16
2023-01-17T13:19:22.491Z,98348.13
2023-01-17T13:21:48.135Z,98348.13
2023-01-17T13:24:34.256Z,98353.63
2023-01-17T13:27:06.495Z,98357.19
2023-01-17T13:29:40.749Z,98354.78
2023-01-17T13:32:26.780Z,98359.94
2023-01-17T13:35:12.233Z,98353.63
2023-01-17T13:37:57.650Z,98354.44
2023-01-17T13:40:29.456Z,98357.19
2023-01-17T13:42:56.041Z,98353.63
2023-01-17T13:45:22.553Z,98360.44
2023-01-17T13:47:48.135Z,98356.41
2023-01-17T13:50:33.579Z,98358.03
2023-01-17T13:52:59.875Z,98361.59
2023-01-17T13:55:42.580Z,98358.81
2023-01-17T13:58:25.779Z,98369.06
2023-01-17T14:00:51.467Z,98360.78
2023-01-17T14:03:33.114Z,98360.78
2023-01-17T14:05:58.673Z,98362.72
2023-01-17T14:08:26.397Z,98375.38
2023-01-17T14:10:52.606Z,98376.19
2023-01-17T14:13:38.052Z,98375.69
2023-01-17T14:16:06.199Z,98372.94
2023-01-17T14:18:33.443Z,98367.41
2023-01-17T14:21:07.268Z,98375.69
2023-01-17T14:23:34.494Z,98372.94
2023-01-17T14:26:10.444Z,98371.34
2023-01-17T14:28:35.994Z,98374.09
2023-01-17T14:31:02.593Z,98365.00
2023-01-17T14:33:29.877Z,98376.03
2023-01-17T14:35:56.649Z,98373.28
2023-01-17T14:38:23.140Z,98376.03
2023-01-17T14:40:49.942Z,98371.69
2023-01-17T14:43:17.812Z,98368.13
2023-01-17T14:45:43.512Z,98360.66
2023-01-17T14:48:24.155Z,98374.44
2023-01-17T14:50:50.551Z,98374.44
2023-01-17T14:53:17.268Z,98372.81
2023-01-17T14:55:50.550Z,98373.63
2023-01-17T14:58:16.914Z,98372.81
2023-01-17T15:00:42.475Z,98378.31
2023-01-17T15:03:09.940Z,98371.47
2023-01-17T15:05:38.148Z,98377.34
2023-01-17T15:08:03.779Z,98382.84
2023-01-17T15:10:29.902Z,98383.16
2023-01-17T15:12:55.810Z,98385.47
2023-01-17T15:15:25.332Z,98381.91
2023-01-17T15:17:52.898Z,98380.28
2023-01-17T15:20:18.468Z,98376.41
2023-01-17T15:22:44.018Z,98386.59
2023-01-17T15:25:09.586Z,98390.50
2023-01-17T15:27:35.155Z,98389.72
2023-01-17T15:30:03.205Z,98393.25
2023-01-17T15:32:31.851Z,98390.50
2023-01-17T15:34:58.521Z,98391.66
2023-01-17T15:37:33.081Z,98378.69
2023-01-17T15:40:06.451Z,98383.38
2023-01-17T15:42:32.564Z,98379.81
2023-01-17T15:45:00.007Z,98379.81
2023-01-17T15:50:01.482Z,98382.59
2023-01-17T15:52:27.330Z,98381.78
2023-01-17T15:54:53.764Z,98373.13
2023-01-17T15:57:27.523Z,98386.00
2023-01-17T15:59:54.166Z,98383.38
2023-01-17T16:02:24.038Z,98380.28
2023-01-17T16:04:49.596Z,98386.94
2023-01-17T16:07:19.436Z,98383.38
2023-01-17T16:09:45.477Z,98393.97
2023-01-17T16:12:11.028Z,98399.81
2023-01-17T16:14:51.503Z,98400.94
2023-01-17T16:17:22.096Z,98405.66
2023-01-17T16:19:47.644Z,98402.91
2023-01-17T16:22:13.412Z,98407.63
2023-01-17T16:24:38.981Z,98423.38
2023-01-17T16:27:04.859Z,98423.38
2023-01-17T16:29:30.416Z,98424.47
2023-01-17T16:31:55.993Z,98427.25
2023-01-17T16:34:23.059Z,98429.19
2023-01-17T16:36:52.460Z,98431.94
2023-01-17T16:39:18.006Z,98425.63
2023-01-17T16:41:43.569Z,98425.63
2023-01-17T16:44:09.112Z,98428.38
2023-01-17T16:46:37.664Z,98430.34
2023-01-17T16:49:03.398Z,98437.47
2023-01-17T16:51:29.009Z,98435.84
2023-01-17T16:53:54.694Z,98438.63
2023-01-17T16:56:20.250Z,98440.56
2023-01-17T16:58:45.849Z,98442.53
2023-01-17T17:01:14.880Z,98438.63
2023-01-17T17:03:41.153Z,98438.97
2023-01-17T17:06:06.775Z,98440.56
2023-01-17T17:08:33.161Z,98442.53
2023-01-17T17:11:14.867Z,98451.59
2023-01-17T17:13:41.147Z,98452.75
2023-01-17T17:16:08.723Z,98444.47
2023-01-17T17:18:35.867Z,98456.63
2023-01-17T17:21:01.822Z,98451.13
2023-01-17T17:23:27.368Z,98453.06
2023-01-17T17:25:54.411Z,98442.84
2023-01-17T17:28:19.959Z,98458.28
2023-01-17T17:30:45.562Z,98458.59
2023-01-17T17:33:11.162Z,98466.84
2023-01-17T17:35:36.722Z,98475.13
2023-01-17T17:38:04.624Z,98469.63
2023-01-17T17:40:30.169Z,98466.06
2023-01-17T17:42:55.727Z,98475.94
2023-01-17T17:45:21.551Z,98480.63
2023-01-17T17:47:47.104Z,98478.22
2023-01-17T17:50:12.725Z,98485.34
2023-01-17T17:52:38.299Z,98487.31
2023-01-17T17:55:03.968Z,98490.88
2023-01-17T17:57:29.523Z,98487.31
2023-01-17T17:59:55.957Z,98485.69
2023-01-17T18:02:21.547Z,98484.91
2023-01-17T18:04:47.127Z,98488.47
2023-01-17T18:07:12.702Z,98490.41
2023-01-17T18:09:38.548Z,98493.16
2023-01-17T18:12:04.268Z,98501.44
2023-01-17T18:14:29.849Z,98502.25
2023-01-17T18:16:56.417Z,98509.72
2023-01-17T18:19:22.952Z,98508.91
2023-01-17T18:21:49.545Z,98513.25
2023-01-17T18:24:15.477Z,98514.41
2023-01-17T18:26:42.480Z,98519.94
2023-01-17T18:29:08.835Z,98517.19
2023-01-17T18:31:34.426Z,98519.94
2023-01-17T18:34:04.459Z,98516.34
2023-01-17T18:36:30.038Z,98521.84
2023-01-17T18:38:55.652Z,98522.97
2023-01-17T18:41:22.243Z,98522.69
2023-01-17T18:43:47.803Z,98520.22
2023-01-17T18:46:13.661Z,98525.72
2023-01-17T18:48:39.237Z,98531.25
2023-01-17T18:51:06.893Z,98532.41
2023-01-17T18:53:32.860Z,98532.06
2023-01-17T18:55:59.275Z,98537.56
2023-01-17T18:58:25.170Z,98526.88
2023-01-17T19:00:51.041Z,98533.19
2023-01-17T19:03:18.134Z,98535.16
2023-01-17T19:05:44.993Z,98533.19
2023-01-17T19:08:10.887Z,98527.69
2023-01-17T19:10:36.448Z,98533.19
2023-01-17T19:13:02.561Z,98534.34
2023-01-17T19:15:31.120Z,98532.41
2023-01-17T19:17:57.108Z,98537.09
2023-01-17T19:20:23.007Z,98533.53
2023-01-17T19:22:48.565Z,98537.44
2023-01-17T19:25:14.111Z,98542.63
2023-01-17T19:27:39.666Z,98546.19
2023-01-17T19:30:05.517Z,98544.56
2023-01-17T19:32:31.088Z,98552.03
2023-01-17T19:34:56.688Z,98554.00
2023-01-17T19:37:22.238Z,98552.03
2023-01-17T19:39:48.383Z,98559.50
2023-01-17T19:42:14.835Z,98556.75
2023-01-17T19:44:41.660Z,98564.19
2023-01-17T19:47:07.219Z,98559.50
2023-01-17T19:49:33.211Z,98561.44
2023-01-17T19:51:58.886Z,98573.28
2023-01-17T19:54:24.462Z,98566.94
2023-01-17T19:56:50.019Z,98567.78
2023-01-17T19:59:15.673Z,98573.28
2023-01-17T20:01:41.305Z,98577.97
2023-01-17T20:04:06.946Z,98581.88
2023-01-17T20:06:33.700Z,98583.81
2023-01-17T20:08:59.283Z,98584.63
2023-01-17T20:11:25.631Z,98582.69
2023-01-17T20:13:53.404Z,98584.63
2023-01-17T20:16:18.972Z,98591.75
2023-01-17T20:18:44.834Z,98590.94
2023-01-17T20:21:12.893Z,98603.13
2023-01-17T20:23:41.402Z,98603.94
2023-01-17T20:26:07.031Z,98607.50
2023-01-17T20:28:33.227Z,98606.69
2023-01-17T20:31:06.863Z,98596.81
2023-01-17T20:33:32.533Z,98603.94
2023-01-17T20:36:09.731Z,98606.69
2023-01-17T20:38:44.525Z,98610.59
2023-01-17T20:41:29.211Z,98608.63
2023-01-17T20:43:55.914Z,98614.16
2023-01-17T20:46:22.730Z,98623.22
2023-01-17T20:48:49.822Z,98619.66
2023-01-17T20:51:16.300Z,98624.38
2023-01-17T20:53:42.576Z,98624.38
2023-01-17T20:56:08.336Z,98625.97
2023-01-17T20:58:33.942Z,98632.63
2023-01-17T21:00:59.588Z,98624.38
2023-01-17T21:03:28.040Z,98626.31
2023-01-17T21:05:57.779Z,98627.13
2023-01-17T21:08:24.195Z,98631.03
2023-01-17T21:10:49.749Z,98632.63
2023-01-17T21:13:15.293Z,98633.78
2023-01-17T21:15:41.539Z,98640.09
2023-01-17T21:18:07.092Z,98638.50
2023-01-17T21:20:33.839Z,98644.81
2023-01-17T21:22:59.399Z,98638.50
2023-01-17T21:25:24.947Z,98639.31
2023-01-17T21:27:51.454Z,98645.94
2023-01-17T21:30:17.051Z,98645.94
2023-01-17T21:32:42.593Z,98643.19
2023-01-17T21:35:08.326Z,98642.38
2023-01-17T21:37:33.882Z,98651.44
2023-01-17T21:39:59.439Z,98646.78
2023-01-17T21:42:25.544Z,98651.44
2023-01-17T21:44:51.100Z,98647.06
2023-01-17T21:47:16.815Z,98643.53
2023-01-17T21:49:42.389Z,98640.75
2023-01-17T21:55:04.692Z,98647.88
2023-01-17T21:57:50.150Z,98656.16
2023-01-17T22:00:15.972Z,98651.78
2023-01-17T22:02:42.501Z,98657.66
2023-01-17T22:05:08.321Z,98663.16
2023-01-17T22:07:33.973Z,98664.44
2023-01-17T22:09:59.679Z,98669.47
2023-01-17T22:12:25.244Z,98666.72
2023-01-17T22:14:51.720Z,98663.16
2023-01-17T22:17:17.281Z,98668.34
2023-01-17T22:19:42.860Z,98671.09
2023-01-17T22:22:08.437Z,98667.88
2023-01-17T22:24:33.996Z,98672.22
2023-01-17T22:26:59.555Z,98674.19
2023-01-17T22:29:25.112Z,98678.91
2023-01-17T22:31:50.674Z,98681.66
2023-01-17T22:34:17.993Z,98682.13
2023-01-17T22:36:44.293Z,98678.91
2023-01-17T22:39:09.941Z,98681.66
2023-01-17T22:41:36.215Z,98680.81
2023-01-17T22:44:01.783Z,98683.56
2023-01-17T22:46:28.410Z,98680.81
2023-01-17T22:48:54.217Z,98680.00
2023-01-17T22:51:20.342Z,98683.56
2023-01-17T22:53:47.024Z,98688.28
2023-01-17T22:56:13.911Z,98686.31
2023-01-17T22:58:41.480Z,98677.25
2023-01-17T23:03:59.142Z,98682.75
2023-01-17T23:06:26.708Z,98692.97
2023-01-17T23:08:53.271Z,98692.97
2023-01-17T23:13:57.551Z,98686.66
2023-01-17T23:16:43.060Z,98688.63
2023-01-17T23:19:23.661Z,98683.91
2023-01-17T23:22:10.823Z,98693.78
2023-01-17T23:24:38.680Z,98687.81
2023-01-17T23:27:24.539Z,98689.41
2023-01-17T23:29:50.088Z,98686.66
2023-01-17T23:32:15.645Z,98694.94
2023-01-17T23:34:41.208Z,98693.31
2023-01-17T23:37:06.761Z,98686.19
2023-01-17T23:39:32.309Z,98687.81
2023-01-17T23:42:17.779Z,98682.31
2023-01-17T23:44:43.324Z,98679.53
2023-01-17T23:47:08.884Z,98687.00
2023-01-17T23:49:34.435Z,98682.31
2023-01-17T23:51:59.987Z,98685.06
2023-01-17T23:54:25.532Z,98682.31
2023-01-17T23:56:51.089Z,98694.47
2023-01-17T23:59:16.679Z,98685.41
